Terminal Aerodrome Forecast
Issued by NWS Central Illinois

Home | Current Version | Previous Version | Text Only | Print | Product List | Glossary On
Versions: 1 2 3 4 5 6 7 8 9 10 11 12 13 14 15 16 17 18 19 20 21 22 23
000
FTUS43 KILX 160100 AAC
TAFPIA
TAF AMD
KPIA 160159Z 1602/1624 02004KT P6SM OVC015
      TEMPO 1602/1603 OVC009
     FM160330 02005KT 6SM BR SCT030
     FM160800 36004KT 2SM BR SCT002
     FM161100 36003KT 1/2SM FG VV002
     FM161300 36005KT 6SM BR SCT005=

USA.gov is the U.S. government's official web portal to all federal, state and local government web resources and services.